Time;durP1;ratioP1;P1;durP2;ratioP2;P2;SDS_P1;SDS_P2;PMS_P1;PMS_P2;Temp;Humidity;BMP_temperature;BMP_pressure;BME280_temperature;BME280_humidity;BME280_pressure;Samples;Min_cycle;Max_cycle;Signal;HPM_P1;HPM_P2
2023/03/16 00:02:01;;;;;;;14.60;5.38;;;3.70;99.90;;;;;;4970600;28;20971;-75
2023/03/16 00:04:29;;;;;;;8.38;5.57;;;3.60;99.90;;;;;;4986966;28;20599;-75
2023/03/16 00:06:55;;;;;;;7.85;4.68;;;3.60;99.90;;;;;;4972583;28;20718;-75
2023/03/16 00:09:21;;;;;;;7.25;4.63;;;3.60;99.90;;;;;;4972688;28;20054;-75
2023/03/16 00:11:46;;;;;;;10.63;5.25;;;3.50;99.90;;;;;;4987681;28;20051;-75
2023/03/16 00:14:12;;;;;;;7.63;3.88;;;3.40;99.90;;;;;;4987189;28;20055;-75
2023/03/16 00:16:38;;;;;;;9.55;4.40;;;3.30;99.90;;;;;;4988000;28;20082;-75
2023/03/16 00:19:04;;;;;;;12.63;5.03;;;3.20;99.90;;;;;;4992195;28;20046;-75
2023/03/16 00:21:31;;;;;;;9.93;5.65;;;3.10;99.90;;;;;;4983616;28;20047;-75
2023/03/16 00:23:57;;;;;;;6.75;5.03;;;3.00;99.90;;;;;;4954609;28;20050;-75
2023/03/16 00:26:24;;;;;;;6.50;4.65;;;2.90;99.90;;;;;;4971327;28;20142;-75
2023/03/16 00:28:53;;;;;;;7.97;5.00;;;2.90;99.90;;;;;;4986835;28;20059;-75
2023/03/16 00:31:18;;;;;;;8.85;5.80;;;2.80;99.90;;;;;;4967345;28;20059;-75
2023/03/16 00:33:44;;;;;;;8.43;5.95;;;2.70;99.90;;;;;;4985597;28;20043;-75
2023/03/16 00:36:10;;;;;;;17.23;6.60;;;2.70;99.90;;;;;;4986838;28;20054;-75
2023/03/16 00:38:48;;;;;;;9.50;6.65;;;2.60;99.90;;;;;;4969496;28;20081;-75
2023/03/16 00:41:15;;;;;;;8.00;6.03;;;2.50;99.90;;;;;;4969696;28;20050;-75
2023/03/16 00:43:44;;;;;;;13.68;7.15;;;2.50;99.90;;;;;;4971080;28;20039;-75
2023/03/16 00:46:12;;;;;;;9.15;7.50;;;2.40;99.90;;;;;;4987095;28;20162;-75
2023/03/16 00:48:41;;;;;;;16.02;7.90;;;2.40;99.90;;;;;;4970780;28;20042;-75
2023/03/16 00:51:11;;;;;;;16.95;7.47;;;2.40;99.90;;;;;;4970229;28;20039;-75
2023/03/16 00:53:38;;;;;;;15.65;7.70;;;2.40;99.90;;;;;;4985340;28;20527;-75
2023/03/16 00:56:04;;;;;;;12.60;7.40;;;2.50;99.90;;;;;;4969179;28;20051;-75
2023/03/16 00:58:35;;;;;;;17.50;7.35;;;2.50;99.90;;;;;;4969112;28;20097;-75
2023/03/16 01:01:12;;;;;;;10.95;6.78;;;2.70;99.90;;;;;;4971360;28;20062;-75
2023/03/16 01:03:38;;;;;;;20.27;8.13;;;2.80;99.90;;;;;;4970077;28;20126;-75
2023/03/16 01:06:10;;;;;;;14.68;8.10;;;2.80;99.90;;;;;;4986167;28;20046;-75
2023/03/16 01:08:37;;;;;;;16.42;7.85;;;3.00;99.90;;;;;;4966001;28;20055;-75
2023/03/16 01:11:04;;;;;;;12.55;7.13;;;3.10;99.90;;;;;;4985898;28;20047;-75
2023/03/16 01:13:31;;;;;;;12.82;8.30;;;3.20;99.90;;;;;;4985572;28;20448;-75
2023/03/16 01:15:58;;;;;;;16.38;6.78;;;3.30;99.90;;;;;;4968818;28;20038;-75
2023/03/16 01:18:24;;;;;;;9.30;7.38;;;3.30;99.90;;;;;;4955389;28;20050;-75
2023/03/16 01:20:50;;;;;;;14.18;7.95;;;3.30;99.90;;;;;;4970390;28;20042;-75
2023/03/16 01:23:24;;;;;;;14.45;8.15;;;3.40;99.90;;;;;;4969670;28;20500;-75
2023/03/16 01:25:53;;;;;;;18.02;8.00;;;3.40;99.90;;;;;;4969353;28;20058;-75
2023/03/16 01:28:24;;;;;;;9.27;6.22;;;3.40;99.90;;;;;;4959053;28;20078;-75
2023/03/16 01:30:53;;;;;;;8.05;6.90;;;3.40;99.90;;;;;;4969361;28;20078;-75
2023/03/16 01:33:23;;;;;;;10.65;6.28;;;3.40;99.90;;;;;;4966938;28;20684;-76
2023/03/16 01:36:04;;;;;;;17.92;8.15;;;3.40;99.90;;;;;;4965790;28;20062;-76
2023/03/16 01:38:30;;;;;;;13.23;8.45;;;3.40;99.90;;;;;;4980481;28;20046;-75
2023/03/16 01:40:56;;;;;;;17.48;8.68;;;3.40;99.90;;;;;;4970422;28;20050;-75
2023/03/16 01:43:25;;;;;;;11.25;7.53;;;3.40;99.90;;;;;;4969858;28;20444;-75
2023/03/16 01:46:03;;;;;;;12.27;6.88;;;3.50;99.90;;;;;;4969467;28;20051;-75
2023/03/16 01:48:36;;;;;;;15.80;8.32;;;3.50;99.90;;;;;;4977343;28;20051;-75
2023/03/16 01:51:10;;;;;;;10.85;7.72;;;3.50;99.90;;;;;;4970498;28;20527;-75
2023/03/16 01:53:38;;;;;;;22.35;8.50;;;3.50;99.90;;;;;;4985567;28;20059;-76
2023/03/16 01:56:07;;;;;;;;;;;3.50;99.90;;;;;;4971013;28;20054;-75
2023/03/16 01:58:34;;;;;;;18.52;8.68;;;3.50;99.90;;;;;;4966341;28;19922;-75
2023/03/16 02:01:00;;;;;;;12.07;7.70;;;3.50;99.90;;;;;;4968667;28;20053;-75
2023/03/16 02:03:27;;;;;;;10.68;6.68;;;3.60;99.90;;;;;;4969189;28;20141;-76
2023/03/16 02:05:58;;;;;;;9.23;7.28;;;3.60;99.90;;;;;;4983485;28;20049;-75
2023/03/16 02:08:25;;;;;;;15.90;8.27;;;3.60;99.90;;;;;;4985343;28;20043;-75
2023/03/16 02:10:53;;;;;;;19.90;8.07;;;3.60;99.90;;;;;;4968782;28;20046;-75
2023/03/16 02:13:24;;;;;;;12.18;6.57;;;3.60;99.90;;;;;;4984563;28;20655;-76
2023/03/16 02:15:51;;;;;;;19.75;7.68;;;3.60;99.90;;;;;;4967643;28;20065;-76
2023/03/16 02:18:18;;;;;;;9.75;7.13;;;3.60;99.90;;;;;;4983521;28;20053;-76
2023/03/16 02:21:00;;;;;;;17.80;8.40;;;3.60;99.90;;;;;;4967042;28;20098;-76
2023/03/16 02:23:26;;;;;;;15.07;8.18;;;3.70;99.90;;;;;;4965397;28;20062;-76
2023/03/16 02:26:09;;;;;;;10.98;7.05;;;3.60;99.90;;;;;;4983812;28;20057;-75
2023/03/16 02:28:54;;;;;;;21.48;7.85;;;3.70;99.90;;;;;;4968625;28;20051;-76
2023/03/16 02:31:21;;;;;;;11.70;7.38;;;3.60;99.90;;;;;;4960867;28;20654;-76
2023/03/16 02:33:49;;;;;;;12.25;6.82;;;3.60;99.90;;;;;;4969236;28;20138;-76
2023/03/16 02:36:16;;;;;;;;;;;3.60;99.90;;;;;;4968777;28;20050;-76
2023/03/16 02:38:41;;;;;;;15.65;7.38;;;3.60;99.90;;;;;;4966587;28;19926;-76
2023/03/16 02:41:17;;;;;;;16.50;7.55;;;3.60;99.90;;;;;;4968329;28;20042;-76
2023/03/16 02:43:57;;;;;;;12.05;7.85;;;3.70;99.90;;;;;;4969259;28;20129;-75
2023/03/16 02:46:26;;;;;;;8.70;6.82;;;3.60;99.90;;;;;;4972887;28;20101;-75
2023/03/16 02:49:07;;;;;;;13.50;6.97;;;3.60;99.90;;;;;;4972645;28;20055;-75
2023/03/16 02:51:33;;;;;;;13.02;7.65;;;3.70;99.90;;;;;;4972007;28;20131;-75
2023/03/16 02:53:58;;;;;;;12.25;7.47;;;3.70;99.90;;;;;;4985370;28;20074;-75
2023/03/16 02:56:25;;;;;;;9.90;6.30;;;3.70;99.90;;;;;;4972475;28;20130;-75
2023/03/16 02:58:52;;;;;;;12.60;7.72;;;3.70;99.90;;;;;;4988951;28;20046;-76
2023/03/16 03:01:17;;;;;;;14.60;8.25;;;3.70;99.90;;;;;;4988407;28;20567;-75
2023/03/16 03:03:43;;;;;;;9.77;7.28;;;3.80;99.90;;;;;;4969543;28;20059;-75
2023/03/16 03:06:09;;;;;;;10.45;7.50;;;3.80;99.90;;;;;;4988926;28;20050;-75
2023/03/16 03:08:35;;;;;;;9.77;7.25;;;3.80;99.90;;;;;;4970379;28;20097;-76
2023/03/16 03:11:01;;;;;;;8.32;7.32;;;3.80;99.90;;;;;;4972011;28;20050;-76
2023/03/16 03:13:27;;;;;;;9.32;7.45;;;3.80;99.90;;;;;;4972407;28;20038;-75
2023/03/16 03:15:52;;;;;;;12.65;7.45;;;3.80;99.90;;;;;;4988025;28;20058;-76
2023/03/16 03:18:18;;;;;;;11.82;7.63;;;3.80;99.90;;;;;;4990945;28;20086;-76
2023/03/16 03:20:44;;;;;;;12.05;8.25;;;3.80;99.90;;;;;;4971945;28;20495;-76
2023/03/16 03:23:10;;;;;;;13.10;7.60;;;3.80;99.90;;;;;;4971358;28;20512;-75
2023/03/16 03:25:35;;;;;;;11.98;7.57;;;3.80;99.90;;;;;;4972268;28;20134;-75
2023/03/16 03:28:04;;;;;;;10.02;6.78;;;3.90;99.90;;;;;;4971406;28;20460;-75
2023/03/16 03:30:30;;;;;;;;;;;3.90;99.90;;;;;;4988546;28;20377;-76
2023/03/16 03:32:55;;;;;;;13.45;8.02;;;3.80;99.90;;;;;;4972394;28;19950;-75
2023/03/16 03:35:21;;;;;;;14.25;7.47;;;3.80;99.90;;;;;;4987864;28;20488;-76
2023/03/16 03:37:48;;;;;;;15.55;6.75;;;3.80;99.90;;;;;;4971719;28;20125;-75
2023/03/16 03:40:15;;;;;;;11.30;7.07;;;3.80;99.90;;;;;;4988077;28;20520;-75
2023/03/16 03:42:42;;;;;;;8.15;7.35;;;3.90;99.90;;;;;;4971783;28;20051;-76
2023/03/16 03:45:11;;;;;;;12.52;8.15;;;3.80;99.90;;;;;;4969582;28;20061;-76
2023/03/16 03:47:37;;;;;;;16.23;7.47;;;3.90;99.90;;;;;;4971972;28;20047;-76
2023/03/16 03:50:04;;;;;;;13.85;8.65;;;3.90;99.90;;;;;;4971568;28;20469;-76
2023/03/16 03:52:29;;;;;;;13.60;8.50;;;3.90;99.90;;;;;;4970787;28;20137;-76
2023/03/16 03:54:55;;;;;;;13.90;8.15;;;3.90;99.90;;;;;;4965823;28;20154;-75
2023/03/16 03:57:21;;;;;;;8.75;7.40;;;3.90;99.90;;;;;;4986456;28;20377;-75
2023/03/16 03:59:46;;;;;;;9.43;7.43;;;3.90;99.90;;;;;;4984146;28;20083;-73
2023/03/16 04:02:13;;;;;;;10.38;8.32;;;3.90;99.90;;;;;;4985408;28;20051;-73
2023/03/16 04:04:40;;;;;;;9.98;8.02;;;3.90;99.90;;;;;;4969979;28;20038;-73
2023/03/16 04:07:06;;;;;;;12.45;8.07;;;3.90;99.90;;;;;;4970791;28;20059;-74
2023/03/16 04:09:35;;;;;;;11.52;8.30;;;3.90;99.90;;;;;;4986439;28;20046;-73
2023/03/16 04:12:02;;;;;;;13.82;8.50;;;3.90;99.90;;;;;;4970386;28;20043;-73
2023/03/16 04:14:28;;;;;;;14.00;7.90;;;3.90;99.90;;;;;;4954006;28;20065;-73
2023/03/16 04:16:55;;;;;;;10.27;8.35;;;3.90;99.90;;;;;;4968897;28;20204;-74
2023/03/16 04:19:24;;;;;;;10.93;7.70;;;3.90;99.90;;;;;;4969571;28;20054;-74
2023/03/16 04:21:50;;;;;;;10.27;8.00;;;3.90;99.90;;;;;;4969785;28;20501;-74
2023/03/16 04:24:17;;;;;;;15.32;8.05;;;3.90;99.90;;;;;;4969635;28;20137;-74
2023/03/16 04:26:44;;;;;;;14.52;7.68;;;3.90;99.90;;;;;;4969679;28;20047;-74
2023/03/16 04:29:13;;;;;;;12.95;8.07;;;3.90;99.90;;;;;;4969556;28;20062;-73
2023/03/16 04:31:41;;;;;;;13.82;7.72;;;4.00;99.90;;;;;;4969729;28;20061;-74
2023/03/16 04:34:07;;;;;;;10.30;7.40;;;3.90;99.90;;;;;;4985106;28;20054;-74
2023/03/16 04:36:32;;;;;;;14.30;7.60;;;4.00;99.90;;;;;;4968432;28;20050;-74
2023/03/16 04:38:58;;;;;;;22.98;8.32;;;3.90;99.90;;;;;;4970211;28;20054;-75
2023/03/16 04:41:25;;;;;;;8.30;7.50;;;4.00;99.90;;;;;;4968794;28;20042;-74
2023/03/16 04:43:50;;;;;;;12.82;7.50;;;4.00;99.90;;;;;;4986235;28;20397;-74
2023/03/16 04:46:16;;;;;;;10.32;7.22;;;4.00;99.90;;;;;;4969226;28;20055;-75
2023/03/16 04:48:42;;;;;;;12.20;8.05;;;4.00;99.90;;;;;;4969689;28;20042;-75
2023/03/16 04:51:09;;;;;;;11.45;8.35;;;4.00;99.90;;;;;;4967408;28;20093;-75
2023/03/16 04:53:35;;;;;;;11.23;7.60;;;4.00;99.90;;;;;;4962745;28;20070;-75
2023/03/16 04:56:01;;;;;;;11.70;8.40;;;4.00;99.90;;;;;;4985632;28;20062;-75
2023/03/16 04:58:26;;;;;;;9.60;7.15;;;4.00;99.90;;;;;;4970718;28;20123;-75
2023/03/16 05:00:54;;;;;;;14.48;7.68;;;4.00;99.90;;;;;;4986060;28;20054;-74
2023/03/16 05:03:20;;;;;;;10.88;7.93;;;4.00;99.90;;;;;;4969392;28;20617;-75
2023/03/16 05:05:46;;;;;;;10.00;7.13;;;4.00;99.90;;;;;;4969831;28;20054;-75
2023/03/16 05:08:12;;;;;;;10.80;7.85;;;4.00;99.90;;;;;;4983595;28;20046;-74
2023/03/16 05:10:38;;;;;;;11.27;8.25;;;4.00;99.90;;;;;;4983878;28;20053;-75
2023/03/16 05:13:04;;;;;;;21.63;8.43;;;4.00;99.90;;;;;;4969386;28;20057;-75
2023/03/16 05:15:30;;;;;;;8.85;7.82;;;4.00;99.90;;;;;;4969502;28;20046;-74
2023/03/16 05:17:56;;;;;;;10.60;7.85;;;4.00;99.90;;;;;;4985547;28;20054;-75
2023/03/16 05:20:22;;;;;;;14.30;7.53;;;4.00;99.90;;;;;;4969112;28;20054;-75
2023/03/16 05:22:48;;;;;;;9.50;7.68;;;4.00;99.90;;;;;;4968443;28;20082;-75
2023/03/16 05:25:15;;;;;;;14.82;9.13;;;4.00;99.90;;;;;;4966785;28;20777;-75
2023/03/16 05:27:46;;;;;;;14.85;8.35;;;4.00;99.90;;;;;;4965450;28;20046;-74
2023/03/16 05:30:15;;;;;;;14.52;9.20;;;4.00;99.90;;;;;;4969308;28;20488;-74
2023/03/16 05:32:41;;;;;;;9.73;7.60;;;4.00;99.90;;;;;;4968482;28;20791;-74
2023/03/16 05:35:11;;;;;;;15.52;7.93;;;4.00;99.90;;;;;;4966661;28;20050;-74
2023/03/16 05:37:37;;;;;;;9.40;7.88;;;4.00;99.90;;;;;;4985929;28;20125;-74
2023/03/16 05:40:15;;;;;;;20.60;8.73;;;4.00;99.90;;;;;;4985165;28;20133;-74
2023/03/16 05:42:43;;;;;;;10.32;7.15;;;4.00;99.90;;;;;;4978558;28;20042;-75
2023/03/16 05:45:09;;;;;;;13.70;8.05;;;4.00;99.90;;;;;;4968358;28;20141;-75
2023/03/16 05:47:36;;;;;;;11.48;7.90;;;4.00;99.90;;;;;;4985479;28;20562;-75
2023/03/16 05:50:03;;;;;;;11.82;8.23;;;4.00;99.90;;;;;;4968494;28;20381;-75
2023/03/16 05:52:29;;;;;;;10.73;7.70;;;4.00;99.90;;;;;;4984782;28;20129;-75
2023/03/16 05:54:55;;;;;;;10.13;7.72;;;4.00;99.90;;;;;;4969505;28;20130;-75
2023/03/16 05:57:21;;;;;;;14.50;7.78;;;4.00;99.90;;;;;;4953445;28;20145;-75
2023/03/16 05:59:47;;;;;;;11.27;8.43;;;4.00;99.90;;;;;;4951654;28;20043;-75
2023/03/16 06:02:13;;;;;;;11.77;8.68;;;4.00;99.90;;;;;;4966735;28;20089;-75
2023/03/16 06:04:39;;;;;;;15.10;7.65;;;4.00;99.90;;;;;;4984963;28;20497;-75
2023/03/16 06:07:04;;;;;;;10.98;8.57;;;4.00;99.90;;;;;;4968101;28;20050;-74
2023/03/16 06:09:30;;;;;;;13.05;7.40;;;4.00;99.90;;;;;;4984026;28;20046;-74
2023/03/16 06:11:56;;;;;;;9.55;7.38;;;4.10;99.90;;;;;;4968488;28;20046;-74
2023/03/16 06:14:22;;;;;;;12.02;7.53;;;4.10;99.90;;;;;;4982056;28;20129;-75
2023/03/16 06:16:48;;;;;;;14.48;8.80;;;4.10;99.90;;;;;;4982913;28;20057;-75
2023/03/16 06:19:14;;;;;;;15.23;8.38;;;4.10;99.90;;;;;;4980123;28;20047;-74
2023/03/16 06:21:40;;;;;;;9.32;7.00;;;4.10;99.90;;;;;;4965629;28;20043;-74
2023/03/16 06:24:08;;;;;;;12.35;7.85;;;4.20;99.90;;;;;;4983897;28;20113;-74
2023/03/16 06:26:35;;;;;;;13.98;8.20;;;4.10;99.90;;;;;;4967394;28;20047;-74
2023/03/16 06:29:01;;;;;;;12.43;7.60;;;4.10;99.90;;;;;;4984259;28;20050;-74
2023/03/16 06:31:27;;;;;;;14.18;7.60;;;4.20;99.90;;;;;;4967773;28;20054;-75
2023/03/16 06:33:52;;;;;;;12.43;7.72;;;4.10;99.90;;;;;;4981031;28;20039;-74
2023/03/16 06:36:18;;;;;;;10.23;7.78;;;4.10;99.90;;;;;;4966992;28;20440;-74
2023/03/16 06:38:44;;;;;;;10.85;9.25;;;4.10;99.90;;;;;;4983612;28;20043;-74
2023/03/16 06:41:09;;;;;;;14.63;8.48;;;4.20;99.90;;;;;;4965677;28;20050;-75
2023/03/16 06:43:35;;;;;;;12.15;8.07;;;4.10;99.90;;;;;;4983059;28;20485;-74
2023/03/16 06:46:02;;;;;;;12.05;8.25;;;4.10;99.90;;;;;;4983400;28;20082;-74
2023/03/16 06:48:28;;;;;;;9.88;7.75;;;4.20;99.90;;;;;;4966594;28;20051;-74
2023/03/16 06:50:54;;;;;;;10.15;7.70;;;4.20;99.90;;;;;;4966449;28;20035;-74
2023/03/16 06:53:20;;;;;;;8.90;7.53;;;4.20;99.90;;;;;;4965159;28;20047;-75
2023/03/16 06:55:47;;;;;;;13.85;7.47;;;4.20;99.90;;;;;;4983837;28;20053;-75
2023/03/16 06:58:13;;;;;;;13.27;7.35;;;4.30;99.90;;;;;;4967060;28;20129;-75
2023/03/16 07:00:38;;;;;;;11.30;8.02;;;4.30;99.90;;;;;;4967880;28;20053;-75
2023/03/16 07:03:04;;;;;;;14.57;8.38;;;4.30;99.90;;;;;;4966329;28;20051;-75
2023/03/16 07:05:30;;;;;;;9.50;6.97;;;4.40;99.90;;;;;;4965651;28;20130;-73
2023/03/16 07:07:56;;;;;;;8.85;7.15;;;4.40;99.90;;;;;;4964755;28;20047;-74
2023/03/16 07:10:22;;;;;;;8.32;6.97;;;4.40;99.90;;;;;;4981559;28;20047;-74
2023/03/16 07:12:49;;;;;;;11.55;7.68;;;4.40;99.90;;;;;;4967647;28;20042;-75
2023/03/16 07:15:14;;;;;;;13.48;8.20;;;4.50;99.90;;;;;;4965685;28;20081;-74
2023/03/16 07:17:41;;;;;;;9.15;6.90;;;4.50;99.90;;;;;;4965701;28;20493;-73
2023/03/16 07:20:09;;;;;;;9.60;7.22;;;4.50;99.90;;;;;;4967015;28;20038;-73
2023/03/16 07:22:36;;;;;;;9.85;6.85;;;4.50;99.90;;;;;;4961875;28;20094;-73
2023/03/16 07:25:02;;;;;;;11.63;7.80;;;4.50;99.90;;;;;;4982439;28;20523;-74
2023/03/16 07:27:28;;;;;;;9.75;7.70;;;4.60;99.90;;;;;;4967287;28;20039;-74
2023/03/16 07:29:54;;;;;;;13.07;7.78;;;4.60;99.90;;;;;;4983417;28;20042;-74
2023/03/16 07:32:21;;;;;;;12.35;9.05;;;4.60;99.90;;;;;;4985645;28;20053;-73
2023/03/16 07:34:47;;;;;;;13.18;8.35;;;4.60;99.90;;;;;;4986094;28;20058;-73
2023/03/16 07:37:12;;;;;;;10.27;7.72;;;4.60;99.90;;;;;;4986356;28;20047;-73
2023/03/16 07:39:38;;;;;;;12.45;7.85;;;4.70;99.90;;;;;;4963581;28;20417;-73
2023/03/16 07:42:05;;;;;;;9.57;6.97;;;4.70;99.90;;;;;;4963901;28;20061;-75
2023/03/16 07:44:31;;;;;;;8.25;6.68;;;4.80;99.90;;;;;;4970289;28;20085;-74
2023/03/16 07:46:56;;;;;;;17.25;8.77;;;4.70;99.90;;;;;;4969432;28;20094;-75
2023/03/16 07:49:22;;;;;;;11.50;8.85;;;4.80;99.90;;;;;;4971189;28;20058;-75
2023/03/16 07:51:48;;;;;;;10.27;7.85;;;4.80;99.90;;;;;;4967970;28;20122;-75
2023/03/16 07:54:14;;;;;;;9.07;6.50;;;4.80;99.90;;;;;;4983421;28;20050;-75
2023/03/16 07:56:40;;;;;;;9.90;7.72;;;4.90;99.90;;;;;;4969207;28;20043;-75
2023/03/16 07:59:06;;;;;;;12.20;6.68;;;4.90;99.90;;;;;;4962449;28;20133;-75
2023/03/16 08:01:33;;;;;;;12.35;7.88;;;4.90;99.90;;;;;;4967769;28;20098;-75
2023/03/16 08:04:00;;;;;;;15.02;8.63;;;5.00;99.90;;;;;;4986838;28;20124;-75
2023/03/16 08:06:26;;;;;;;7.72;6.22;;;5.00;99.90;;;;;;4954991;28;20050;-75
2023/03/16 08:08:52;;;;;;;8.18;7.05;;;5.00;99.90;;;;;;4966005;28;20129;-75
2023/03/16 08:11:22;;;;;;;10.10;7.10;;;5.00;99.90;;;;;;4968697;28;20573;-75
2023/03/16 08:13:52;;;;;;;14.48;9.95;;;5.10;99.90;;;;;;4984411;28;20047;-75
2023/03/16 08:16:20;;;;;;;13.70;8.65;;;5.10;99.90;;;;;;4970794;28;20055;-75
2023/03/16 08:18:46;;;;;;;11.13;8.25;;;5.10;99.90;;;;;;4967412;28;20567;-75
2023/03/16 08:21:12;;;;;;;13.77;9.80;;;5.10;99.90;;;;;;4971812;28;20134;-75
2023/03/16 08:23:37;;;;;;;15.30;9.40;;;5.10;99.90;;;;;;4986298;28;20050;-76
2023/03/16 08:26:07;;;;;;;27.02;16.77;;;5.10;99.90;;;;;;4971448;28;20516;-75
2023/03/16 08:28:35;;;;;;;14.05;10.77;;;5.10;99.90;;;;;;4987285;28;20114;-75
2023/03/16 08:31:00;;;;;;;21.08;12.00;;;5.20;99.90;;;;;;4972020;28;20049;-76
2023/03/16 08:33:26;;;;;;;15.43;9.90;;;5.20;99.90;;;;;;4953423;28;20046;-76
2023/03/16 08:35:52;;;;;;;15.05;10.95;;;5.20;99.90;;;;;;4969030;28;20051;-77
2023/03/16 08:38:19;;;;;;;18.02;12.88;;;5.20;99.90;;;;;;4968964;28;20113;-76
2023/03/16 08:40:47;;;;;;;14.55;10.60;;;5.20;99.90;;;;;;4966736;28;20051;-75
2023/03/16 08:43:13;;;;;;;14.45;10.55;;;5.20;99.90;;;;;;4984468;28;20900;-76
2023/03/16 08:45:41;;;;;;;9.90;8.73;;;5.30;99.90;;;;;;4967660;28;20043;-76
2023/03/16 08:48:11;;;;;;;10.90;8.68;;;5.30;99.90;;;;;;4969952;28;20710;-76
2023/03/16 08:50:42;;;;;;;17.35;9.50;;;5.30;99.90;;;;;;4969267;28;20057;-76
2023/03/16 08:53:09;;;;;;;15.65;8.60;;;5.30;99.90;;;;;;4969429;28;20504;-75
2023/03/16 08:55:35;;;;;;;11.93;6.95;;;5.40;99.90;;;;;;4968631;28;20050;-74
2023/03/16 08:58:01;;;;;;;11.85;8.25;;;5.40;99.90;;;;;;4971235;28;20097;-74
2023/03/16 09:00:28;;;;;;;14.95;8.60;;;5.40;99.90;;;;;;4971482;28;20078;-74
2023/03/16 09:02:54;;;;;;;11.07;8.52;;;5.40;99.90;;;;;;4984763;28;20038;-75
2023/03/16 09:05:22;;;;;;;11.00;8.63;;;5.40;99.90;;;;;;4969977;28;20042;-75
2023/03/16 09:07:48;;;;;;;12.67;9.90;;;5.40;99.90;;;;;;4985621;28;20050;-74
2023/03/16 09:10:14;;;;;;;19.95;9.18;;;5.40;99.90;;;;;;4983921;28;20047;-74
2023/03/16 09:12:46;;;;;;;17.63;9.23;;;5.40;99.90;;;;;;4970179;28;20080;-74
2023/03/16 09:15:12;;;;;;;14.23;9.23;;;5.40;99.90;;;;;;4967693;28;20404;-74
2023/03/16 09:17:40;;;;;;;12.50;9.70;;;5.40;99.90;;;;;;4969164;28;20042;-74
2023/03/16 09:20:08;;;;;;;15.70;9.88;;;5.40;99.90;;;;;;4967339;28;20044;-74
2023/03/16 09:22:36;;;;;;;14.60;8.55;;;5.40;99.90;;;;;;4985754;28;20090;-74
2023/03/16 09:25:04;;;;;;;11.05;8.98;;;5.50;99.90;;;;;;4968541;28;20051;-74
2023/03/16 09:27:30;;;;;;;10.73;8.60;;;5.50;99.90;;;;;;4973763;28;20104;-74
2023/03/16 09:29:55;;;;;;;13.77;10.50;;;5.50;99.90;;;;;;4969795;28;20121;-74
2023/03/16 09:32:22;;;;;;;16.30;10.35;;;5.50;99.90;;;;;;4968497;28;20492;-74
2023/03/16 09:34:48;;;;;;;19.20;9.43;;;5.50;99.90;;;;;;4983573;28;20046;-75
2023/03/16 09:37:15;;;;;;;15.45;9.50;;;5.60;99.90;;;;;;4969134;28;20058;-75
2023/03/16 09:39:40;;;;;;;15.40;10.00;;;5.60;99.90;;;;;;4969691;28;20057;-75
2023/03/16 09:42:21;;;;;;;12.35;8.18;;;5.60;99.90;;;;;;4969805;28;20063;-75
2023/03/16 09:45:08;;;;;;;14.95;10.88;;;5.70;99.90;;;;;;4966970;28;20053;-74
2023/03/16 09:47:35;;;;;;;16.60;12.25;;;5.60;99.90;;;;;;4968595;28;20050;-75
2023/03/16 09:50:13;;;;;;;11.53;9.70;;;5.70;99.90;;;;;;4968240;28;20540;-75
2023/03/16 09:53:12;;;;;;;13.30;10.00;;;5.80;99.90;;;;;;4984691;28;20424;-74
2023/03/16 09:55:40;;;;;;;11.13;8.55;;;5.80;99.90;;;;;;4981445;28;20150;-75
2023/03/16 09:58:20;;;;;;;16.05;9.95;;;5.80;99.90;;;;;;4962921;28;20061;-75
2023/03/16 10:01:13;;;;;;;14.05;9.55;;;5.90;99.90;;;;;;4962488;28;20043;-75
2023/03/16 10:03:51;;;;;;;13.98;9.27;;;6.00;99.90;;;;;;4968748;28;20053;-79
2023/03/16 10:06:18;;;;;;;13.95;9.93;;;6.20;99.90;;;;;;4969459;28;20058;-77
2023/03/16 10:09:22;;;;;;;15.50;12.45;;;6.20;99.90;;;;;;4984354;28;20038;-78
2023/03/16 10:11:53;;;;;;;15.32;10.13;;;6.30;99.90;;;;;;4948239;28;20043;-78
2023/03/16 10:14:29;;;;;;;16.17;11.45;;;6.40;99.90;;;;;;4981946;28;20055;-78
2023/03/16 10:17:12;;;;;;;18.35;12.25;;;6.40;99.90;;;;;;4982595;28;20085;-78
2023/03/16 10:19:59;;;;;;;14.15;9.80;;;6.40;99.90;;;;;;4958435;28;20047;-78
2023/03/16 10:22:33;;;;;;;16.67;8.88;;;6.40;99.90;;;;;;4968037;28;20055;-78
2023/03/16 10:25:31;;;;;;;16.90;11.63;;;6.40;99.90;;;;;;4968142;28;20054;-78
2023/03/16 10:27:57;;;;;;;24.10;12.77;;;6.40;99.90;;;;;;4969877;28;20042;-78
2023/03/16 10:30:32;;;;;;;31.55;18.40;;;6.40;99.90;;;;;;4987214;28;20046;-77
2023/03/16 10:33:30;;;;;;;26.02;14.98;;;6.40;99.90;;;;;;4967996;28;20128;-77
2023/03/16 10:36:05;;;;;;;23.10;13.38;;;6.40;99.90;;;;;;4968921;28;20066;-78
2023/03/16 10:38:39;;;;;;;30.55;15.88;;;6.40;99.90;;;;;;4986862;28;20499;-78
2023/03/16 10:41:17;;;;;;;22.23;14.82;;;6.40;99.90;;;;;;4987493;28;20104;-77
2023/03/16 10:43:44;;;;;;;26.03;15.23;;;6.40;99.90;;;;;;4986894;28;20487;-78
2023/03/16 10:46:13;;;;;;;51.50;24.95;;;6.40;99.90;;;;;;4987878;28;20055;-78
2023/03/16 10:48:39;;;;;;;32.25;18.13;;;6.40;99.90;;;;;;4982329;28;20172;-78
2023/03/16 10:51:11;;;;;;;31.40;18.55;;;6.40;99.90;;;;;;4971319;28;20495;-77
2023/03/16 10:53:42;;;;;;;33.38;17.17;;;6.50;99.90;;;;;;4971075;28;20046;-78
2023/03/16 10:56:12;;;;;;;30.27;17.85;;;6.50;99.90;;;;;;4987853;28;20062;-78
2023/03/16 10:58:42;;;;;;;30.50;15.25;;;6.50;99.90;;;;;;4979724;28;20047;-78
2023/03/16 11:01:28;;;;;;;41.10;21.05;;;6.50;99.90;;;;;;4970752;28;20137;-78
2023/03/16 11:03:56;;;;;;;20.88;11.70;;;6.50;99.90;;;;;;4991194;28;20093;-78
2023/03/16 11:06:30;;;;;;;35.58;13.73;;;6.50;99.90;;;;;;4987758;28;20042;-78
2023/03/16 11:09:07;;;;;;;48.38;20.55;;;6.50;99.90;;;;;;4991053;28;20041;-78
2023/03/16 11:11:34;;;;;;;33.93;16.93;;;6.50;99.90;;;;;;4974746;28;20046;-78
2023/03/16 11:14:03;;;;;;;52.83;22.77;;;6.50;99.90;;;;;;4989554;28;20359;-78
2023/03/16 11:16:44;;;;;;;54.92;27.95;;;6.50;99.90;;;;;;4977687;28;20054;-77
2023/03/16 11:19:33;;;;;;;35.80;17.38;;;6.60;99.90;;;;;;4991115;28;20054;-78
2023/03/16 11:22:11;;;;;;;19.42;12.48;;;6.60;99.90;;;;;;4974387;28;20050;-78
2023/03/16 11:25:06;;;;;;;25.23;15.70;;;6.70;99.90;;;;;;4988477;28;20054;-77
2023/03/16 11:27:58;;;;;;;14.90;10.55;;;6.60;99.90;;;;;;4986464;28;20459;-77
2023/03/16 11:30:35;;;;;;;13.98;8.23;;;6.70;99.90;;;;;;4990417;28;20054;-77
2023/03/16 11:33:02;;;;;;;13.10;9.48;;;6.70;99.90;;;;;;4989627;28;20049;-78
2023/03/16 11:35:45;;;;;;;10.45;7.65;;;6.70;99.90;;;;;;4973858;28;20101;-77
2023/03/16 11:38:15;;;;;;;13.00;9.20;;;6.70;99.90;;;;;;4981948;28;20109;-77
2023/03/16 11:41:11;;;;;;;11.20;8.57;;;6.70;99.90;;;;;;4972901;28;20101;-78
2023/03/16 11:43:58;;;;;;;12.85;9.02;;;6.60;99.90;;;;;;4962800;28;20148;-78
2023/03/16 11:46:35;;;;;;;15.40;9.20;;;6.60;99.90;;;;;;4986007;28;20051;-78
2023/03/16 11:49:29;;;;;;;12.50;9.75;;;6.60;99.90;;;;;;4989082;28;20047;-77
2023/03/16 11:52:07;;;;;;;17.25;9.98;;;6.60;99.90;;;;;;4973710;28;20043;-76
2023/03/16 11:55:00;;;;;;;12.32;10.07;;;6.70;99.90;;;;;;4973652;28;20065;-76
2023/03/16 11:58:01;;;;;;;22.75;9.90;;;6.70;99.90;;;;;;4990729;28;20078;-76
2023/03/16 12:01:07;;;;;;;19.88;9.23;;;6.80;99.90;;;;;;4980224;28;20078;-76
2023/03/16 12:04:00;;;;;;;15.00;9.25;;;6.80;99.90;;;;;;4967275;28;20047;-78
2023/03/16 12:06:59;;;;;;;14.43;9.20;;;6.90;99.90;;;;;;4989569;28;20046;-77
2023/03/16 12:09:49;;;;;;;14.13;9.68;;;6.90;99.90;;;;;;4973238;28;20775;-77
2023/03/16 12:12:48;;;;;;;26.23;15.57;;;6.90;99.90;;;;;;4987423;28;20397;-77
2023/03/16 12:15:29;;;;;;;;;;;7.00;99.90;;;;;;4988164;28;20054;-77
2023/03/16 12:18:05;;;;;;;14.02;11.05;;;7.00;99.90;;;;;;4972797;28;19921;-77
2023/03/16 12:20:49;;;;;;;12.35;9.23;;;7.10;99.90;;;;;;4984755;28;20516;-77
2023/03/16 12:23:29;;;;;;;11.80;8.25;;;7.20;99.90;;;;;;4972725;28;20054;-77
2023/03/16 12:25:57;;;;;;;14.38;10.43;;;7.30;99.90;;;;;;4982571;28;20100;-78
2023/03/16 12:28:26;;;;;;;11.40;8.57;;;7.40;99.90;;;;;;4973231;28;20081;-77
2023/03/16 12:31:08;;;;;;;15.35;10.43;;;7.50;99.90;;;;;;4986494;28;20082;-77
2023/03/16 12:33:52;;;;;;;15.30;10.15;;;7.60;99.90;;;;;;4989075;28;20101;-78
2023/03/16 12:36:40;;;;;;;9.38;7.78;;;7.70;99.90;;;;;;4986532;28;20042;-78
2023/03/16 12:39:24;;;;;;;10.30;8.38;;;7.80;99.90;;;;;;4971568;28;20800;-77
2023/03/16 12:42:30;;;;;;;11.20;8.20;;;7.90;99.90;;;;;;4989280;28;20555;-78
2023/03/16 12:45:02;;;;;;;13.95;9.50;;;8.00;99.90;;;;;;4960247;28;20046;-78
2023/03/16 12:47:28;;;;;;;14.15;8.38;;;8.10;99.90;;;;;;4971752;28;20050;-77
2023/03/16 12:50:01;;;;;;;8.50;7.10;;;8.10;99.90;;;;;;4990398;28;20504;-78
2023/03/16 12:52:41;;;;;;;13.55;8.95;;;8.20;99.90;;;;;;4989839;28;20042;-78
2023/03/16 12:55:13;;;;;;;8.93;6.85;;;8.30;99.90;;;;;;4968958;28;20073;-78
2023/03/16 12:57:41;;;;;;;14.73;7.57;;;8.30;99.90;;;;;;4985651;28;20046;-78
2023/03/16 13:00:08;;;;;;;16.92;7.68;;;8.40;99.90;;;;;;4971111;28;20519;-77
2023/03/16 13:02:37;;;;;;;7.10;6.03;;;8.40;99.90;;;;;;4971864;28;21642;-78
2023/03/16 13:05:16;;;;;;;8.55;7.03;;;8.50;99.90;;;;;;4969743;28;20538;-78